Time;durP1;ratioP1;P1;durP2;ratioP2;P2;SDS_P1;SDS_P2;PMS_P1;PMS_P2;Temp;Humidity;BMP_temperature;BMP_pressure;BME280_temperature;BME280_humidity;BME280_pressure;Samples;Min_cycle;Max_cycle;Signal;HPM_P1;HPM_P2
2021/04/30 00:02:51;;;;;;;4.67;4.27;;;;;;;12.11;42.37;97357.75;8364180;28;20565;-69
2021/04/30 00:06:53;;;;;;;4.43;4.03;;;;;;;12.17;42.17;97359.13;8366281;28;20198;-69
2021/04/30 00:10:55;;;;;;;4.37;4.07;;;;;;;12.17;42.09;97357.38;8365675;28;20204;-69
2021/04/30 00:14:58;;;;;;;4.07;3.77;;;;;;;12.07;42.39;97353.63;8363984;28;20228;-70
2021/04/30 00:19:00;;;;;;;4.60;4.20;;;;;;;11.77;43.01;97344.16;8364477;28;20199;-69
2021/04/30 00:23:03;;;;;;;4.43;4.03;;;;;;;11.99;42.07;97345.50;8364052;28;20314;-69
2021/04/30 00:27:06;;;;;;;4.40;4.00;;;;;;;11.89;42.15;97352.97;8364334;28;20196;-69
2021/04/30 00:31:08;;;;;;;4.60;4.20;;;;;;;11.79;42.56;97357.84;8364133;28;20228;-69
2021/04/30 00:35:11;;;;;;;4.73;4.33;;;;;;;11.79;42.80;97368.22;8364160;28;20690;-69
2021/04/30 00:39:13;;;;;;;4.90;4.13;;;;;;;11.80;42.61;97371.66;8364458;28;20215;-69
2021/04/30 00:43:16;;;;;;;4.30;4.00;;;;;;;11.72;42.87;97369.50;8363881;28;20220;-69
2021/04/30 00:47:29;;;;;;;4.83;3.90;;;;;;;11.68;43.37;97374.03;8364078;28;20200;-70
2021/04/30 00:51:31;;;;;;;4.73;4.00;;;;;;;11.78;43.21;97376.09;8363389;28;20207;-69
2021/04/30 00:55:33;;;;;;;5.73;4.20;;;;;;;11.63;43.39;97383.88;8363594;28;20230;-69
2021/04/30 00:59:37;;;;;;;5.70;4.67;;;;;;;11.67;42.84;97389.69;8363141;28;20608;-69
2021/04/30 01:03:42;;;;;;;5.23;4.73;;;;;;;11.66;42.73;97388.03;8383162;28;20289;-70
2021/04/30 01:07:44;;;;;;;6.23;5.17;;;;;;;11.66;42.76;97394.03;8396396;28;20207;-69
2021/04/30 01:11:46;;;;;;;7.67;5.00;;;;;;;11.53;42.75;97390.50;8395710;28;20622;-69
2021/04/30 01:15:49;;;;;;;5.33;4.83;;;;;;;11.49;43.06;97394.19;8395369;28;20234;-70
2021/04/30 01:19:50;;;;;;;5.37;4.87;;;;;;;11.43;43.12;97397.97;8395163;28;20665;-69
2021/04/30 01:23:54;;;;;;;5.23;4.70;;;;;;;11.48;43.01;97398.53;8395130;28;20219;-69
2021/04/30 01:27:56;;;;;;;5.80;5.20;;;;;;;11.26;43.85;97398.09;8395577;28;20619;-70
2021/04/30 01:31:57;;;;;;;5.70;5.20;;;;;;;11.40;43.31;97402.47;8395036;28;20257;-70
2021/04/30 01:36:00;;;;;;;5.73;5.13;;;;;;;11.22;43.50;97407.78;8395334;28;20210;-70
2021/04/30 01:40:03;;;;;;;6.30;5.70;;;;;;;11.29;43.12;97405.66;8394751;28;20199;-70
2021/04/30 01:44:07;;;;;;;6.43;5.83;;;;;;;11.05;43.47;97402.72;8394679;28;20242;-70
2021/04/30 01:48:12;;;;;;;7.23;5.90;;;;;;;11.12;43.24;97409.22;8394612;28;20631;-69
2021/04/30 01:52:14;;;;;;;6.53;5.70;;;;;;;11.07;43.74;97409.47;8394638;28;20519;-70
2021/04/30 01:56:17;;;;;;;6.70;6.10;;;;;;;10.92;44.08;97399.94;8394463;28;20311;-69
2021/04/30 02:00:22;;;;;;;7.00;6.40;;;;;;;11.05;43.60;97402.72;8394408;28;20677;-69
2021/04/30 02:04:24;;;;;;;6.50;5.90;;;;;;;10.98;43.73;97401.38;8393732;28;20223;-70
2021/04/30 02:08:26;;;;;;;6.60;5.90;;;;;;;10.88;44.00;97403.63;8394068;28;20207;-70
2021/04/30 02:12:29;;;;;;;7.77;6.40;;;;;;;10.90;44.02;97404.38;8393801;28;20211;-70
2021/04/30 02:16:31;;;;;;;7.13;6.27;;;;;;;10.89;43.97;97403.53;8378064;28;20250;-70
2021/04/30 02:20:33;;;;;;;6.53;5.73;;;;;;;10.75;43.97;97406.88;8361426;28;20199;-70
2021/04/30 02:24:35;;;;;;;6.50;5.20;;;;;;;10.68;43.92;97408.13;8360952;28;20666;-70
2021/04/30 02:28:39;;;;;;;6.13;4.70;;;;;;;10.54;44.04;97410.59;8391585;28;20287;-70
2021/04/30 02:32:42;;;;;;;5.40;4.90;;;;;;;10.59;44.19;97418.16;8393875;28;20310;-70
2021/04/30 02:36:43;;;;;;;5.40;4.90;;;;;;;10.54;44.19;97421.78;8393989;28;20627;-70
2021/04/30 02:40:48;;;;;;;5.97;5.37;;;;;;;10.54;44.47;97424.38;8392815;28;20195;-70
2021/04/30 02:44:51;;;;;;;5.80;5.23;;;;;;;10.35;44.47;97427.09;8377490;28;20227;-70
2021/04/30 02:49:00;;;;;;;6.17;5.57;;;;;;;10.29;44.64;97424.81;8394059;28;20566;-69
2021/04/30 02:53:02;;;;;;;5.77;5.27;;;;;;;10.22;44.86;97420.84;8393737;28;20534;-70
2021/04/30 02:57:04;;;;;;;5.77;5.27;;;;;;;10.22;45.00;97426.03;8393519;28;20769;-70
2021/04/30 03:01:09;;;;;;;5.47;5.07;;;;;;;10.00;45.33;97426.31;8393364;28;20209;-70
2021/04/30 03:05:12;;;;;;;6.73;5.47;;;;;;;9.87;45.32;97428.66;8393676;28;20223;-70
2021/04/30 03:09:14;;;;;;;6.10;5.60;;;;;;;9.96;45.47;97437.72;8393326;28;20203;-70
2021/04/30 03:13:16;;;;;;;6.30;5.70;;;;;;;9.83;45.65;97427.16;8392882;28;20210;-70
2021/04/30 03:17:22;;;;;;;6.20;5.70;;;;;;;9.74;45.64;97432.78;8393018;28;20227;-70
2021/04/30 03:21:24;;;;;;;8.33;6.73;;;;;;;9.72;45.76;97426.84;8393148;28;20210;-69
2021/04/30 03:25:26;;;;;;;6.60;6.10;;;;;;;9.82;45.61;97428.06;8392522;28;20227;-69
2021/04/30 03:29:28;;;;;;;7.63;5.90;;;;;;;9.91;45.61;97435.34;8396559;28;20393;-69
2021/04/30 03:33:30;;;;;;;7.20;6.60;;;;;;;9.84;45.53;97426.22;8399180;28;20244;-69
2021/04/30 03:37:33;;;;;;;7.20;6.43;;;;;;;9.84;45.63;97433.97;8398750;28;20199;-69
2021/04/30 03:41:35;;;;;;;7.33;6.60;;;;;;;9.89;45.47;97429.41;8392092;28;20615;-69
2021/04/30 03:45:37;;;;;;;7.07;6.37;;;;;;;9.74;46.01;97428.44;8365301;28;20246;-69
2021/04/30 03:49:39;;;;;;;7.47;6.67;;;;;;;9.74;45.75;97418.09;8365366;28;20218;-69
2021/04/30 03:53:41;;;;;;;7.40;6.80;;;;;;;9.66;46.09;97421.97;8365222;28;20203;-69
2021/04/30 03:57:44;;;;;;;7.90;6.17;;;;;;;9.71;45.74;97433.78;8388937;28;20199;-69
2021/04/30 04:01:46;;;;;;;7.23;6.53;;;;;;;9.75;45.68;97426.72;8398396;28;20203;-69
2021/04/30 04:05:49;;;;;;;6.77;6.17;;;;;;;9.74;45.74;97438.78;8368364;28;20703;-69
2021/04/30 04:09:51;;;;;;;7.63;6.70;;;;;;;9.56;45.74;97432.78;8364763;28;20493;-70
2021/04/30 04:13:53;;;;;;;7.40;6.30;;;;;;;9.60;45.70;97436.03;8387640;28;20199;-70
2021/04/30 04:17:54;;;;;;;9.53;6.77;;;;;;;9.64;45.59;97440.16;8398137;28;20288;-70
2021/04/30 04:21:57;;;;;;;6.97;6.20;;;;;;;9.57;46.08;97434.44;8398236;28;20499;-70
2021/04/30 04:25:59;;;;;;;8.40;6.70;;;;;;;9.69;46.16;97438.19;8398871;28;20226;-70
2021/04/30 04:30:01;;;;;;;7.70;6.60;;;;;;;9.77;45.79;97450.75;8399383;28;20199;-70
2021/04/30 04:34:04;;;;;;;8.00;7.23;;;;;;;9.69;46.03;97469.22;8399028;28;20243;-70
2021/04/30 04:38:07;;;;;;;7.33;6.73;;;;;;;9.65;46.20;97453.91;8397569;28;20203;-70
2021/04/30 04:42:09;;;;;;;8.30;7.60;;;;;;;9.73;46.55;97450.03;8396359;28;20207;-70
2021/04/30 04:46:12;;;;;;;7.23;6.57;;;;;;;9.72;46.33;97463.03;8396896;28;20281;-70
2021/04/30 04:50:14;;;;;;;9.83;7.53;;;;;;;9.81;46.40;97457.44;8396724;28;20245;-69
2021/04/30 04:54:17;;;;;;;7.80;7.00;;;;;;;9.75;46.64;97468.91;8396603;28;20203;-69
2021/04/30 04:58:20;;;;;;;8.67;7.47;;;;;;;9.78;46.74;97473.91;8396093;28;20250;-70
2021/04/30 05:02:22;;;;;;;7.80;7.00;;;;;;;9.87;46.58;97471.81;8395966;28;20614;-70
2021/04/30 05:06:24;;;;;;;11.50;7.20;;;;;;;9.78;46.72;97463.56;8395028;28;20267;-70
2021/04/30 05:10:27;;;;;;;9.37;7.60;;;;;;;9.83;46.65;97468.53;8394304;28;20582;-70
2021/04/30 05:14:29;;;;;;;9.83;7.50;;;;;;;9.86;46.82;97470.97;8394196;28;20219;-70
2021/04/30 05:18:41;;;;;;;11.43;7.67;;;;;;;10.00;46.58;97465.09;8394852;28;20207;-70
2021/04/30 05:22:44;;;;;;;7.83;7.13;;;;;;;10.21;46.48;97467.53;8390829;28;20243;-79
2021/04/30 05:26:47;;;;;;;8.87;8.00;;;;;;;10.29;46.36;97470.56;8362540;28;20200;-69
2021/04/30 05:30:49;;;;;;;8.60;7.80;;;;;;;10.59;46.09;97470.75;8362636;28;20227;-69
2021/04/30 05:34:51;;;;;;;10.57;8.67;;;;;;;10.61;46.09;97475.88;8363139;28;20204;-69
2021/04/30 05:38:53;;;;;;;9.73;8.73;;;;;;;10.55;47.08;97485.63;8363111;28;20207;-69
2021/04/30 05:42:56;;;;;;;9.57;8.63;;;;;;;10.83;47.02;97486.75;8363352;28;20220;-70
2021/04/30 05:46:58;;;;;;;9.07;8.27;;;;;;;11.06;46.47;97497.63;8364055;28;20473;-69
2021/04/30 05:51:00;;;;;;;10.37;9.40;;;;;;;11.07;46.27;97482.03;8363201;28;20199;-69
2021/04/30 05:55:02;;;;;;;10.57;9.53;;;;;;;11.28;45.93;97482.59;8362367;28;20200;-69
2021/04/30 05:59:07;;;;;;;9.80;8.90;;;;;;;11.40;46.09;97488.03;8362556;28;20207;-69
2021/04/30 06:03:09;;;;;;;9.87;8.97;;;;;;;11.48;45.92;97486.69;8362818;28;20239;-70
2021/04/30 06:07:11;;;;;;;10.50;9.53;;;;;;;11.66;45.80;97505.56;8363341;28;20227;-70
2021/04/30 06:11:13;;;;;;;11.70;9.73;;;;;;;12.06;44.96;97502.50;8363930;28;20195;-69
2021/04/30 06:15:16;;;;;;;11.20;9.27;;;;;;;12.22;44.22;97495.50;8362775;28;20277;-70
2021/04/30 06:19:18;;;;;;;11.20;10.07;;;;;;;12.62;42.53;97492.28;8362771;28;20238;-70
2021/04/30 06:23:22;;;;;;;11.13;10.03;;;;;;;12.74;42.38;97496.75;8363019;28;20224;-70
2021/04/30 06:27:24;;;;;;;11.90;10.27;;;;;;;12.94;42.20;97500.72;8373322;28;20195;-70
2021/04/30 06:31:27;;;;;;;11.53;10.40;;;;;;;13.26;41.25;97506.53;8395249;28;20646;-70
2021/04/30 06:35:30;;;;;;;11.33;10.10;;;;;;;13.18;41.70;97505.38;8425895;28;20629;-70
2021/04/30 06:39:32;;;;;;;10.70;9.70;;;;;;;13.26;41.46;97505.72;8422124;28;20202;-70
2021/04/30 06:43:34;;;;;;;12.83;11.63;;;;;;;13.42;41.24;97514.28;8395822;28;20334;-70
2021/04/30 06:47:39;;;;;;;11.20;10.20;;;;;;;13.51;40.74;97509.41;8394960;28;20210;-70
2021/04/30 06:51:41;;;;;;;11.50;10.30;;;;;;;13.62;40.97;97514.75;8395839;28;20203;-70
2021/04/30 06:55:43;;;;;;;12.20;10.97;;;;;;;13.96;39.72;97508.22;8395038;28;20210;-72
2021/04/30 06:59:45;;;;;;;12.70;11.43;;;;;;;13.94;39.01;97501.44;8394322;28;20678;-70
2021/04/30 07:03:48;;;;;;;11.33;10.33;;;;;;;14.28;38.13;97498.28;8398533;28;20222;-70
2021/04/30 07:07:50;;;;;;;12.03;10.83;;;;;;;14.29;38.40;97493.88;8402365;28;20528;-70
2021/04/30 07:11:52;;;;;;;11.07;10.07;;;;;;;14.58;38.22;97486.75;8401887;28;20195;-70
2021/04/30 07:15:54;;;;;;;5.43;3.80;;;;;;;16.07;46.87;97493.63;8401940;28;20219;-74
2021/04/30 07:19:57;;;;;;;8.03;6.73;;;;;;;16.69;39.35;97489.81;8400645;28;20202;-74
2021/04/30 07:23:59;;;;;;;8.93;6.60;;;;;;;17.21;36.68;97487.59;8401751;28;20229;-74
2021/04/30 07:28:00;;;;;;;8.33;6.07;;;;;;;17.43;34.20;97480.63;8401366;28;20283;-73
2021/04/30 07:32:03;;;;;;;7.07;6.37;;;;;;;17.77;34.52;97471.72;8399691;28;20222;-72
2021/04/30 07:36:13;;;;;;;11.07;7.20;;;;;;;17.89;34.24;97462.03;8401000;28;20603;-72
2021/04/30 07:40:18;;;;;;;12.57;8.00;;;;;;;18.22;32.64;97460.22;8400213;28;20228;-72
2021/04/30 07:44:20;;;;;;;12.87;7.50;;;;;;;18.29;33.14;97453.50;8400824;28;20536;-73
2021/04/30 07:48:22;;;;;;;7.73;6.93;;;;;;;18.64;31.79;97465.44;8400692;28;20503;-74
2021/04/30 07:52:32;;;;;;;9.37;6.60;;;;;;;19.16;30.86;97464.53;8401900;28;20249;-74
2021/04/30 07:56:34;;;;;;;12.23;6.93;;;;;;;19.28;30.22;97453.78;8399383;28;20207;-74
2021/04/30 08:00:36;;;;;;;8.37;7.43;;;;;;;19.41;29.57;97456.16;8401469;28;20199;-75
2021/04/30 08:04:38;;;;;;;11.23;6.53;;;;;;;19.61;29.53;97451.78;8398814;28;20223;-74
2021/04/30 08:08:41;;;;;;;10.23;7.77;;;;;;;19.21;27.65;97446.56;8368894;28;20219;-74
2021/04/30 08:12:43;;;;;;;8.93;6.33;;;;;;;19.64;28.59;97448.84;8367968;28;20655;-73
2021/04/30 08:16:45;;;;;;;7.70;5.70;;;;;;;19.88;27.61;97452.91;8367970;28;20266;-73
2021/04/30 08:20:47;;;;;;;6.30;4.93;;;;;;;20.28;27.30;97462.41;8367649;28;20204;-74
2021/04/30 08:24:49;;;;;;;8.33;5.87;;;;;;;20.18;26.78;97454.53;8367857;28;20223;-74
2021/04/30 08:28:52;;;;;;;6.00;4.87;;;;;;;20.89;26.16;97453.25;8366341;28;20208;-74
2021/04/30 08:32:54;;;;;;;8.30;6.60;;;;;;;20.68;25.88;97448.22;8366630;28;20722;-75
2021/04/30 08:36:56;;;;;;;6.57;5.87;;;;;;;20.41;26.60;97451.56;8367465;28;20584;-74
2021/04/30 08:40:59;;;;;;;8.98;8.05;;;;;;;20.78;24.70;97438.47;8364359;28;20932;-71
2021/04/30 08:45:01;;;;;;;9.17;7.90;;;;;;;20.02;27.10;97441.97;8365843;28;20555;-70
2021/04/30 08:49:05;;;;;;;8.40;7.60;;;;;;;19.39;26.79;97436.25;8366160;28;20285;-69
2021/04/30 08:53:07;;;;;;;8.00;7.30;;;;;;;18.84;28.09;97427.00;8365528;28;20214;-70
2021/04/30 08:57:11;;;;;;;9.00;7.30;;;;;;;19.01;27.84;97427.34;8366579;28;20207;-70
2021/04/30 09:01:13;;;;;;;8.43;7.63;;;;;;;18.19;28.25;97425.59;8365853;28;20208;-70
2021/04/30 09:05:23;;;;;;;8.83;7.97;;;;;;;17.95;29.33;97417.03;8365981;28;20228;-70
2021/04/30 09:09:24;;;;;;;10.80;9.70;;;;;;;18.14;29.49;97420.72;8365100;28;20417;-71
2021/04/30 09:13:27;;;;;;;9.77;8.87;;;;;;;17.55;30.68;97416.81;8364449;28;20204;-71
2021/04/30 09:17:29;;;;;;;9.70;8.70;;;;;;;17.07;31.25;97423.25;8365066;28;20337;-69
2021/04/30 09:21:32;;;;;;;9.87;8.73;;;;;;;16.97;31.74;97415.31;8363926;28;20212;-70
2021/04/30 09:25:43;;;;;;;10.87;9.37;;;;;;;16.36;33.41;97418.28;8363025;28;20234;-70
2021/04/30 09:29:46;;;;;;;9.73;8.83;;;;;;;16.42;33.17;97415.19;8363778;28;20196;-70
2021/04/30 09:33:48;;;;;;;9.27;8.30;;;;;;;16.29;33.37;97411.03;8363950;28;20239;-70
2021/04/30 09:37:50;;;;;;;11.13;10.13;;;;;;;15.51;33.39;97417.66;8363054;28;20390;-69
2021/04/30 09:42:13;;;;;;;10.33;9.33;;;;;;;15.67;33.85;97415.59;8363157;28;20196;-70
2021/04/30 09:46:32;;;;;;;10.13;9.07;;;;;;;15.90;33.89;97434.00;8363422;28;20330;-70
2021/04/30 09:50:35;;;;;;;10.17;9.07;;;;;;;15.79;33.93;97427.75;8363363;28;20600;-63
2021/04/30 09:54:38;;;;;;;9.83;8.97;;;;;;;15.42;34.00;97420.00;8362373;28;20218;-63
2021/04/30 09:58:44;;;;;;;9.97;8.93;;;;;;;15.41;34.65;97405.28;8362894;28;20207;-63
2021/04/30 10:02:49;;;;;;;10.03;8.40;;;;;;;15.33;33.69;97384.16;8363474;28;20608;-63
2021/04/30 10:06:54;;;;;;;10.07;9.07;;;;;;;15.02;33.82;97391.59;8362300;28;20303;-62
2021/04/30 10:10:56;;;;;;;10.27;5.87;;;;;;;15.42;35.91;97375.66;8363091;28;20569;-62
2021/04/30 10:15:19;;;;;;;9.63;8.07;;;;;;;15.40;33.66;97376.69;8362400;28;20220;-62
2021/04/30 10:19:24;;;;;;;10.67;7.90;;;;;;;15.51;33.83;97368.91;8362295;28;20188;-63
2021/04/30 10:23:26;;;;;;;9.27;8.03;;;;;;;14.94;32.93;97370.44;8362147;28;20227;-63
2021/04/30 10:27:29;;;;;;;9.77;7.93;;;;;;;15.07;33.93;97378.19;8362365;28;20207;-63
2021/04/30 10:31:34;;;;;;;8.87;7.97;;;;;;;15.44;33.89;97378.97;8361093;28;20231;-63
2021/04/30 10:35:41;;;;;;;9.03;8.20;;;;;;;15.42;33.92;97377.41;8361358;28;20253;-64
2021/04/30 10:39:55;;;;;;;10.07;7.83;;;;;;;15.49;33.84;97383.03;8367139;28;20268;-63
2021/04/30 10:44:12;;;;;;;10.00;9.00;;;;;;;15.25;34.05;97378.66;8367646;28;20215;-69
2021/04/30 10:48:14;;;;;;;9.43;7.90;;;;;;;15.44;34.06;97388.59;8366609;28;20207;-70
2021/04/30 10:52:20;;;;;;;9.80;8.80;;;;;;;15.36;34.09;97393.53;8368375;28;20203;-70
2021/04/30 10:56:33;;;;;;;9.47;8.57;;;;;;;15.39;34.21;97378.47;8369016;28;20215;-70
2021/04/30 11:00:38;;;;;;;9.63;8.27;;;;;;;15.24;33.81;97363.94;8369191;28;20189;-70
2021/04/30 11:04:40;;;;;;;9.90;8.27;;;;;;;15.22;34.02;97366.66;8368407;28;20220;-71
2021/04/30 11:08:52;;;;;;;9.27;8.37;;;;;;;15.34;34.46;97369.31;8368703;28;20648;-69
2021/04/30 11:12:54;;;;;;;9.70;8.07;;;;;;;15.50;34.00;97361.19;8368044;28;20206;-69
2021/04/30 11:16:58;;;;;;;8.77;7.83;;;;;;;15.71;33.95;97356.19;8366905;28;20556;-69
2021/04/30 11:21:03;;;;;;;8.53;7.60;;;;;;;15.88;34.01;97347.09;8366886;28;20666;-69
2021/04/30 11:25:14;;;;;;;10.30;8.03;;;;;;;16.29;34.12;97343.91;8367951;28;20613;-69
2021/04/30 11:29:16;;;;;;;9.13;8.23;;;;;;;16.17;33.00;97344.88;8367754;28;20192;-69
2021/04/30 11:33:18;;;;;;;11.50;8.47;;;;;;;16.06;32.96;97350.09;8365800;28;20695;-69
2021/04/30 11:37:21;;;;;;;9.87;8.87;;;;;;;16.18;32.70;97355.22;8364968;28;20212;-69
2021/04/30 11:41:24;;;;;;;10.03;8.13;;;;;;;16.08;32.48;97354.25;8391251;28;20646;-69
2021/04/30 11:45:26;;;;;;;9.97;8.40;;;;;;;16.18;32.80;97355.22;8397883;28;20223;-70
2021/04/30 11:49:28;;;;;;;13.67;9.97;;;;;;;15.98;32.16;97363.72;8397116;28;20202;-69
2021/04/30 11:53:31;;;;;;;12.37;9.33;;;;;;;15.65;33.38;97370.50;8399058;28;20309;-70
2021/04/30 11:57:33;;;;;;;10.40;9.40;;;;;;;15.64;33.72;97374.88;8397116;28;20301;-69
2021/04/30 12:01:35;;;;;;;11.00;9.93;;;;;;;15.35;33.87;97366.59;8398523;28;20620;-69
2021/04/30 12:05:38;;;;;;;16.07;10.30;;;;;;;15.20;34.65;97378.97;8397720;28;20304;-69
2021/04/30 12:09:40;;;;;;;10.90;9.63;;;;;;;14.99;35.50;97378.75;8397770;28;20302;-70
2021/04/30 12:13:43;;;;;;;12.13;9.23;;;;;;;15.04;35.23;97379.28;8398874;28;20219;-70
2021/04/30 12:17:45;;;;;;;10.87;9.77;;;;;;;15.01;35.91;97371.66;8396880;28;20219;-70
2021/04/30 12:21:47;;;;;;;14.70;9.37;;;;;;;15.17;36.27;97379.22;8397605;28;20199;-70
2021/04/30 12:25:49;;;;;;;13.00;8.50;;;;;;;15.13;36.46;97371.72;8396523;28;20230;-69
2021/04/30 12:29:52;;;;;;;15.63;9.53;;;;;;;15.07;36.96;97367.78;8397000;28;20268;-70
2021/04/30 12:33:55;;;;;;;9.80;8.80;;;;;;;15.02;37.18;97356.84;8376330;28;648045;-69
2021/04/30 12:37:57;;;;;;;10.50;8.50;;;;;;;14.90;36.30;97371.59;8398694;28;20199;-70
2021/04/30 12:42:01;;;;;;;7.00;6.30;;;;;;;14.52;33.27;97367.28;8398201;28;20214;-70
2021/04/30 12:46:16;;;;;;;12.03;6.57;;;;;;;14.56;35.93;97365.28;8398609;28;20727;-70
2021/04/30 12:50:20;;;;;;;8.10;6.20;;;;;;;14.65;36.25;97372.50;8399099;28;20188;-70
2021/04/30 12:54:28;;;;;;;11.73;5.90;;;;;;;14.64;35.31;97376.88;8398934;28;20203;-70
2021/04/30 12:58:30;;;;;;;8.07;5.93;;;;;;;14.84;35.72;97385.06;8399357;28;20222;-70
2021/04/30 13:02:33;;;;;;;9.23;6.50;;;;;;;14.63;35.55;97379.59;8398602;28;20203;-69
2021/04/30 13:06:37;;;;;;;11.13;5.43;;;;;;;14.72;34.74;97378.94;8397833;28;20227;-70
2021/04/30 13:10:43;;;;;;;5.37;4.70;;;;;;;14.77;34.02;97389.03;8395915;28;20563;-71
2021/04/30 13:14:46;;;;;;;11.23;4.50;;;;;;;14.75;36.21;97393.53;8396979;28;20238;-71
2021/04/30 13:18:49;;;;;;;9.43;5.00;;;;;;;14.79;37.20;97384.56;8376312;28;20203;-71
2021/04/30 13:23:01;;;;;;;7.80;5.30;;;;;;;14.75;37.28;97403.94;8376973;28;20218;-71
2021/04/30 13:27:25;;;;;;;7.70;5.20;;;;;;;14.40;40.02;97399.41;8363152;28;20331;-71
2021/04/30 13:31:46;;;;;;;12.13;5.30;;;;;;;14.43;41.46;97404.38;8363619;28;20249;-73
2021/04/30 13:35:51;;;;;;;11.23;5.70;;;;;;;14.21;42.72;97412.84;8383911;28;20282;-71
2021/04/30 13:39:54;;;;;;;8.57;5.30;;;;;;;14.01;43.13;97415.03;8396355;28;20203;-70
2021/04/30 13:44:15;;;;;;;5.97;5.37;;;;;;;14.19;44.58;97420.75;8390139;28;20627;-70
2021/04/30 13:48:25;;;;;;;8.40;5.17;;;;;;;13.92;47.47;97415.66;8361973;28;20651;-70
2021/04/30 13:52:28;;;;;;;7.07;4.80;;;;;;;14.05;46.49;97418.22;8362425;28;20196;-70
2021/04/30 13:56:30;;;;;;;7.40;4.83;;;;;;;13.83;47.04;97429.25;8362796;28;20207;-70
2021/04/30 14:00:32;;;;;;;5.43;4.93;;;;;;;13.67;48.28;97425.06;8362465;28;20207;-70
2021/04/30 14:04:34;;;;;;;6.47;4.93;;;;;;;13.79;49.16;97414.78;8362358;28;20234;-70
2021/04/30 14:08:38;;;;;;;8.37;5.20;;;;;;;13.73;49.62;97413.44;8362353;28;20200;-70
2021/04/30 14:12:40;;;;;;;7.60;5.30;;;;;;;13.38;51.56;97411.34;8362527;28;20528;-70
2021/04/30 14:16:42;;;;;;;8.17;5.70;;;;;;;13.22;52.32;97406.25;8361957;28;20224;-70
2021/04/30 14:20:44;;;;;;;6.23;5.63;;;;;;;13.41;51.84;97413.75;8361728;28;20207;-70
2021/04/30 14:24:47;;;;;;;6.53;5.83;;;;;;;13.11;50.94;97411.31;8361790;28;20583;-69
2021/04/30 14:28:49;;;;;;;7.90;6.07;;;;;;;13.27;51.04;97426.78;8362393;28;20262;-69
2021/04/30 14:32:51;;;;;;;7.23;6.53;;;;;;;13.01;51.50;97421.47;8363080;28;20235;-69
2021/04/30 14:36:53;;;;;;;6.97;6.37;;;;;;;13.03;52.19;97414.41;8361589;28;20651;-69
2021/04/30 14:40:55;;;;;;;7.60;6.83;;;;;;;13.08;52.16;97411.53;8361766;28;20207;-70
2021/04/30 14:44:57;;;;;;;7.33;6.63;;;;;;;12.91;53.20;97405.63;8359867;28;20231;-70
2021/04/30 14:48:59;;;;;;;8.00;7.30;;;;;;;12.97;53.20;97409.59;8368739;28;20512;-69
2021/04/30 14:53:02;;;;;;;7.03;6.43;;;;;;;13.01;53.28;97402.44;8394498;28;20203;-70
2021/04/30 14:57:05;;;;;;;8.70;7.80;;;;;;;12.93;52.79;97391.66;8395395;28;20499;-70
2021/04/30 15:01:07;;;;;;;7.13;6.50;;;;;;;13.01;52.93;97392.88;8394777;28;20199;-70
2021/04/30 15:05:12;;;;;;;7.37;6.63;;;;;;;12.93;52.69;97394.28;8386671;28;20227;-69
2021/04/30 15:09:14;;;;;;;8.10;6.80;;;;;;;12.84;52.80;97387.91;8362008;28;20207;-70
2021/04/30 15:13:17;;;;;;;6.77;6.17;;;;;;;12.92;52.33;97385.66;8362049;28;20200;-70
2021/04/30 15:17:22;;;;;;;6.53;5.90;;;;;;;13.06;51.98;97387.38;8362430;28;20512;-69
2021/04/30 15:21:27;;;;;;;6.70;6.10;;;;;;;12.77;52.68;97391.81;8360647;28;20199;-68
2021/04/30 15:25:29;;;;;;;6.77;6.07;;;;;;;12.94;52.29;97386.38;8364924;28;20227;-69
2021/04/30 15:29:32;;;;;;;8.87;7.73;;;;;;;12.75;52.63;97389.31;8366918;28;20203;-69
2021/04/30 15:33:34;;;;;;;7.13;6.37;;;;;;;13.01;51.83;97390.28;8366694;28;20236;-69
2021/04/30 15:37:36;;;;;;;6.90;6.27;;;;;;;13.06;52.04;97396.03;8366923;28;20200;-69
2021/04/30 15:41:38;;;;;;;9.70;7.80;;;;;;;13.08;52.05;97394.16;8379057;28;20576;-69
2021/04/30 15:45:41;;;;;;;7.17;6.37;;;;;;;12.89;52.20;97398.84;8366945;28;20231;-69
2021/04/30 15:49:43;;;;;;;7.67;6.87;;;;;;;12.84;52.72;97401.72;8366037;28;20207;-69
2021/04/30 15:53:45;;;;;;;11.70;6.50;;;;;;;12.87;51.96;97406.75;8366774;28;20481;-69
2021/04/30 15:57:47;;;;;;;6.90;6.20;;;;;;;12.85;52.01;97399.94;8377290;28;20195;-69
2021/04/30 16:01:50;;;;;;;10.00;6.70;;;;;;;12.79;52.07;97400.34;8398795;28;20258;-69
2021/04/30 16:05:52;;;;;;;7.33;6.33;;;;;;;12.95;52.00;97379.44;8398509;28;20663;-68
2021/04/30 16:09:54;;;;;;;10.63;9.10;;;;;;;12.87;52.59;97370.34;8399141;28;20199;-69
2021/04/30 16:13:58;;;;;;;9.90;8.63;;;;;;;12.89;52.52;97362.47;8399288;28;20195;-69
2021/04/30 16:18:00;;;;;;;12.67;11.37;;;;;;;12.82;52.58;97356.00;8399286;28;20293;-69
2021/04/30 16:22:02;;;;;;;10.67;7.87;;;;;;;12.85;53.02;97351.44;8399912;28;20203;-69
2021/04/30 16:26:04;;;;;;;7.53;6.80;;;;;;;12.91;52.46;97348.44;8399423;28;20554;-69
2021/04/30 16:30:07;;;;;;;7.03;5.90;;;;;;;12.67;52.47;97335.22;8399376;28;20223;-69
2021/04/30 16:34:10;;;;;;;9.43;7.17;;;;;;;12.92;52.03;97357.06;8430255;28;20231;-69
2021/04/30 16:38:12;;;;;;;8.30;6.90;;;;;;;12.68;52.96;97351.66;8431537;28;20201;-69
2021/04/30 16:42:14;;;;;;;7.07;6.37;;;;;;;12.59;52.30;97366.06;8432293;28;20213;-69
2021/04/30 16:46:18;;;;;;;7.33;6.40;;;;;;;12.93;52.45;97361.34;8432515;28;20222;-69
2021/04/30 16:50:21;;;;;;;7.50;6.80;;;;;;;12.90;52.10;97366.72;8431977;28;20209;-69
2021/04/30 16:54:25;;;;;;;6.83;6.17;;;;;;;12.80;52.35;97361.28;8431259;28;20206;-69
2021/04/30 16:58:27;;;;;;;8.70;6.83;;;;;;;12.85;51.69;97366.16;8432491;28;20201;-69
2021/04/30 17:02:29;;;;;;;15.50;12.13;;;;;;;12.95;52.21;97384.63;8432035;28;20213;-69
2021/04/30 17:06:32;;;;;;;10.60;9.50;;;;;;;12.64;53.05;97381.34;8430558;28;20226;-69
2021/04/30 17:10:34;;;;;;;8.60;7.80;;;;;;;12.78;53.08;97396.09;8430562;28;20302;-69
2021/04/30 17:14:36;;;;;;;9.13;8.23;;;;;;;12.76;53.15;97390.97;8430625;28;20514;-69
2021/04/30 17:18:38;;;;;;;10.50;7.90;;;;;;;12.82;53.18;97390.59;8431318;28;20206;-69
2021/04/30 17:22:41;;;;;;;8.50;7.70;;;;;;;12.85;53.00;97387.81;8431266;28;20210;-69
2021/04/30 17:26:43;;;;;;;8.30;7.03;;;;;;;12.75;53.58;97380.69;8430278;28;20234;-69
2021/04/30 17:30:46;;;;;;;9.47;7.37;;;;;;;12.80;54.13;97381.22;8429812;28;20281;-69
2021/04/30 17:34:48;;;;;;;7.03;6.43;;;;;;;12.80;53.73;97379.47;8430568;28;20191;-69
2021/04/30 17:38:53;;;;;;;7.70;6.80;;;;;;;12.76;54.25;97361.56;8389200;28;20206;-69
2021/04/30 17:42:55;;;;;;;10.83;9.73;;;;;;;12.75;53.90;97359.91;8363553;28;20207;-69
2021/04/30 17:46:58;;;;;;;9.90;8.83;;;;;;;12.54;54.64;97346.47;8362398;28;20709;-69
2021/04/30 17:51:01;;;;;;;7.40;6.70;;;;;;;12.49;54.93;97346.78;8365643;28;20323;-68
2021/04/30 17:55:06;;;;;;;7.57;6.77;;;;;;;12.49;54.42;97350.22;8362659;28;20211;-69
2021/04/30 17:59:11;;;;;;;7.47;6.43;;;;;;;12.57;55.16;97336.75;8363808;28;20204;-69
2021/04/30 18:03:13;;;;;;;10.80;9.73;;;;;;;12.44;55.06;97362.63;8364260;28;20580;-69
2021/04/30 18:07:15;;;;;;;13.17;11.97;;;;;;;12.62;55.19;97365.00;8363697;28;20309;-69
2021/04/30 18:11:18;;;;;;;9.17;8.37;;;;;;;12.59;54.94;97376.44;8362114;28;20295;-69
2021/04/30 18:15:22;;;;;;;8.17;6.80;;;;;;;12.64;54.84;97409.91;8362954;28;20227;-69
2021/04/30 18:19:24;;;;;;;8.73;7.73;;;;;;;12.62;54.78;97422.16;8362518;28;20195;-69
2021/04/30 18:23:26;;;;;;;8.03;6.90;;;;;;;12.56;54.70;97427.75;8362325;28;20207;-69
2021/04/30 18:27:28;;;;;;;8.43;7.63;;;;;;;12.55;54.61;97432.09;8363071;28;20595;-69
2021/04/30 18:31:30;;;;;;;9.23;8.23;;;;;;;12.55;55.32;97433.88;8361826;28;20227;-69
2021/04/30 18:35:32;;;;;;;12.20;11.00;;;;;;;12.55;55.70;97445.09;8361505;28;20211;-69
2021/04/30 18:39:35;;;;;;;90.30;66.10;;;;;;;12.54;56.00;97445.19;8362711;28;20196;-69
2021/04/30 18:43:38;;;;;;;27.53;24.63;;;;;;;12.45;56.20;97438.75;8361436;28;20195;-70
2021/04/30 18:47:39;;;;;;;14.07;12.83;;;;;;;12.46;56.59;97437.84;8361895;28;20223;-69
2021/04/30 18:51:43;;;;;;;12.03;10.40;;;;;;;12.19;57.83;97451.56;8361964;28;20203;-69
2021/04/30 18:55:45;;;;;;;13.07;10.70;;;;;;;12.36;57.23;97449.72;8361922;28;20204;-69
2021/04/30 18:59:48;;;;;;;13.50;12.20;;;;;;;12.24;57.61;97451.28;8365995;28;20200;-69
2021/04/30 19:03:50;;;;;;;12.20;11.07;;;;;;;12.15;58.01;97449.22;8365925;28;20206;-70